createdAt,value
2018-09-22T00:00:11.378Z,95713.00
2018-09-22T00:02:42.291Z,95733.00
2018-09-22T00:05:13.182Z,95737.00
2018-09-22T00:07:44.093Z,95746.00
2018-09-22T00:10:14.878Z,95767.00
2018-09-22T00:12:45.762Z,95768.00
2018-09-22T00:15:16.858Z,95778.00
2018-09-22T00:17:47.896Z,95778.00
2018-09-22T00:20:18.761Z,95765.00
2018-09-22T00:22:49.653Z,95761.00
2018-09-22T00:25:20.513Z,95769.00
2018-09-22T00:27:51.522Z,95769.00
2018-09-22T00:30:22.382Z,95775.00
2018-09-22T00:32:53.294Z,95795.00
2018-09-22T00:35:24.201Z,95788.00
2018-09-22T00:37:55.093Z,95786.00
2018-09-22T00:40:25.992Z,95788.00
2018-09-22T00:42:56.873Z,95779.00
2018-09-22T00:45:27.732Z,95800.00
2018-09-22T00:47:58.855Z,95813.00
2018-09-22T00:50:29.733Z,95817.00
2018-09-22T00:53:00.641Z,95812.00
2018-09-22T00:55:31.517Z,95830.00
2018-09-22T00:58:02.385Z,95834.00
2018-09-22T01:00:33.234Z,95832.00
2018-09-22T01:03:04.161Z,95817.00
2018-09-22T01:05:35.022Z,95829.00
2018-09-22T01:08:06.073Z,95835.00
2018-09-22T01:10:36.921Z,95842.00
2018-09-22T01:13:07.894Z,95843.00
2018-09-22T01:15:39.056Z,95840.00
2018-09-22T01:18:09.962Z,95844.00
2018-09-22T01:20:40.828Z,95837.00
2018-09-22T01:23:11.731Z,95843.00
2018-09-22T01:25:42.573Z,95843.00
2018-09-22T01:28:13.483Z,95848.00
2018-09-22T01:30:44.500Z,95860.00
2018-09-22T01:33:15.514Z,95866.00
2018-09-22T01:35:46.420Z,95866.00
2018-09-22T01:38:17.594Z,95867.00
2018-09-22T01:40:48.401Z,95874.00
2018-09-22T01:43:19.394Z,95873.00
2018-09-22T01:45:50.301Z,95883.00
2018-09-22T01:48:21.321Z,95887.00
2018-09-22T01:50:52.933Z,95879.00
2018-09-22T01:53:23.821Z,95883.00
2018-09-22T01:55:54.741Z,95885.00
2018-09-22T01:58:25.632Z,95884.00
2018-09-22T02:00:56.501Z,95886.00
2018-09-22T02:03:27.360Z,95884.00
2018-09-22T02:05:58.225Z,95884.00
2018-09-22T02:08:29.273Z,95883.00
2018-09-22T02:11:00.155Z,95878.00
2018-09-22T02:13:31.082Z,95885.00
2018-09-22T02:16:01.973Z,95895.00
2018-09-22T02:18:32.934Z,95900.00
2018-09-22T02:21:03.761Z,95905.00
2018-09-22T02:23:34.974Z,95904.00
2018-09-22T02:26:05.865Z,95898.00
2018-09-22T02:28:36.861Z,95905.00
2018-09-22T02:31:07.714Z,95903.00
2018-09-22T02:33:38.653Z,95905.00
2018-09-22T02:36:09.577Z,95908.00
2018-09-22T02:38:40.515Z,95900.00
2018-09-22T02:41:11.421Z,95898.00
2018-09-22T02:43:42.381Z,95895.00
2018-09-22T02:46:13.261Z,95909.00
2018-09-22T02:48:44.084Z,95920.00
2018-09-22T02:51:14.927Z,95926.00
2018-09-22T02:53:45.789Z,95931.00
2018-09-22T02:56:16.621Z,95940.00
2018-09-22T02:58:47.713Z,95945.00
2018-09-22T03:01:18.613Z,95949.00
2018-09-22T03:03:49.549Z,95966.00
2018-09-22T03:06:20.357Z,95954.00
2018-09-22T03:08:51.292Z,95958.00
2018-09-22T03:11:22.141Z,95953.00
2018-09-22T03:13:53.012Z,95954.00
2018-09-22T03:16:23.901Z,95958.00
2018-09-22T03:18:54.781Z,95957.00
2018-09-22T03:21:25.595Z,95958.00
2018-09-22T03:23:56.873Z,95968.00
2018-09-22T03:26:27.722Z,95998.00
2018-09-22T03:28:58.613Z,95999.00
2018-09-22T03:31:30.262Z,95992.00
2018-09-22T03:34:01.161Z,95999.00
2018-09-22T03:36:32.313Z,95997.00
2018-09-22T03:39:03.314Z,95986.00
2018-09-22T03:41:34.134Z,96012.00
2018-09-22T03:44:05.144Z,96026.00
2018-09-22T03:46:35.981Z,96008.00
2018-09-22T03:49:07.072Z,95998.00
2018-09-22T03:51:38.721Z,95998.00
2018-09-22T03:54:09.570Z,95985.00
2018-09-22T03:56:41.736Z,95963.00
2018-09-22T03:59:12.693Z,95957.00
2018-09-22T04:01:43.613Z,95937.00
2018-09-22T04:04:14.581Z,95941.00
2018-09-22T04:06:45.958Z,95939.00
2018-09-22T04:09:17.184Z,95941.00
2018-09-22T04:11:48.193Z,95944.00
2018-09-22T04:14:20.173Z,95947.00
2018-09-22T04:16:51.053Z,95949.00
2018-09-22T04:19:21.973Z,95953.00
2018-09-22T04:21:52.802Z,95966.00
2018-09-22T04:24:23.825Z,95972.00
2018-09-22T04:26:54.637Z,95974.00
2018-09-22T04:29:25.543Z,95960.00
2018-09-22T04:31:56.422Z,95948.00
2018-09-22T04:34:27.507Z,95969.00
2018-09-22T04:36:58.341Z,95979.00
2018-09-22T04:39:29.274Z,95986.00
2018-09-22T04:42:00.104Z,95985.00
2018-09-22T04:44:30.981Z,95983.00
2018-09-22T04:47:01.890Z,95976.00
2018-09-22T04:49:33.157Z,95958.00
2018-09-22T04:52:04.061Z,95962.00
2018-09-22T04:54:34.913Z,95976.00
2018-09-22T04:57:05.797Z,95976.00
2018-09-22T04:59:36.844Z,95974.00
2018-09-22T05:02:07.774Z,95975.00
2018-09-22T05:04:39.361Z,95987.00
2018-09-22T05:07:10.289Z,96004.00
2018-09-22T05:09:41.182Z,96021.00
2018-09-22T05:12:12.221Z,96010.00
2018-09-22T05:14:43.080Z,95988.00
2018-09-22T05:17:13.975Z,95991.00
2018-09-22T05:19:44.881Z,96006.00
2018-09-22T05:22:15.881Z,96004.00
2018-09-22T05:24:46.800Z,96015.00
2018-09-22T05:27:17.581Z,96028.00
2018-09-22T05:29:48.494Z,96037.00
2018-09-22T05:32:19.338Z,96036.00
2018-09-22T05:34:50.801Z,96037.00
2018-09-22T05:37:21.821Z,96054.00
2018-09-22T05:39:52.933Z,96052.00
2018-09-22T05:42:23.821Z,96058.00
2018-09-22T05:44:54.721Z,96049.00
2018-09-22T05:47:25.645Z,96045.00
2018-09-22T05:49:56.561Z,96054.00
2018-09-22T05:52:27.360Z,96054.00
2018-09-22T05:54:58.261Z,96055.00
2018-09-22T05:57:29.142Z,96050.00
2018-09-22T06:00:00.102Z,96045.00
2018-09-22T06:02:31.301Z,96030.00
2018-09-22T06:05:02.361Z,96030.00
2018-09-22T06:07:33.482Z,96036.00
2018-09-22T06:10:04.449Z,96033.00
2018-09-22T06:12:35.323Z,96037.00
2018-09-22T06:15:07.061Z,96017.00
2018-09-22T06:17:37.894Z,96010.00
2018-09-22T06:20:09.241Z,96011.00
2018-09-22T06:22:40.402Z,96003.00
2018-09-22T06:25:11.305Z,96006.00
2018-09-22T06:27:42.160Z,96004.00
2018-09-22T06:30:13.065Z,96003.00
2018-09-22T06:32:44.189Z,96003.00
2018-09-22T06:35:15.101Z,96007.00
2018-09-22T06:37:45.978Z,96011.00
2018-09-22T06:40:16.901Z,96005.00
2018-09-22T06:42:48.624Z,96013.00
2018-09-22T06:45:19.668Z,96008.00
2018-09-22T06:47:51.073Z,96000.00
2018-09-22T06:50:21.917Z,96000.00
2018-09-22T06:52:52.712Z,95996.00
2018-09-22T06:55:23.702Z,95989.00
2018-09-22T06:57:54.593Z,95986.00
2018-09-22T07:00:25.563Z,95990.00
2018-09-22T07:02:56.549Z,95999.00
2018-09-22T07:05:27.478Z,95996.00
2018-09-22T07:07:58.341Z,95994.00
2018-09-22T07:10:29.566Z,95988.00
2018-09-22T07:13:00.457Z,95989.00
2018-09-22T07:15:31.396Z,95996.00
2018-09-22T07:18:02.332Z,95997.00
2018-09-22T07:20:33.421Z,95995.00
2018-09-22T07:23:09.433Z,95989.00
2018-09-22T07:25:40.664Z,95996.00
2018-09-22T07:28:11.954Z,96003.00
2018-09-22T07:30:42.912Z,96001.00
2018-09-22T07:33:13.761Z,95995.00
2018-09-22T07:35:44.688Z,96007.00
2018-09-22T07:38:15.534Z,96012.00
2018-09-22T07:40:46.422Z,96009.00
2018-09-22T07:43:17.336Z,96014.00
2018-09-22T07:45:48.315Z,96015.00
2018-09-22T07:48:19.194Z,96013.00
2018-09-22T07:50:50.181Z,96017.00
2018-09-22T07:53:21.041Z,96014.00
2018-09-22T07:55:51.973Z,96021.00
2018-09-22T07:58:22.844Z,96023.00
2018-09-22T08:00:53.974Z,96021.00
2018-09-22T08:03:24.862Z,96001.00
2018-09-22T08:05:55.834Z,96009.00
2018-09-22T08:08:26.666Z,96016.00
2018-09-22T08:10:57.554Z,96026.00
2018-09-22T08:13:28.502Z,96029.00
2018-09-22T08:15:59.461Z,96038.00
2018-09-22T08:18:30.401Z,96042.00
2018-09-22T08:21:01.365Z,96055.00
2018-09-22T08:23:32.163Z,96049.00
2018-09-22T08:26:03.093Z,96039.00
2018-09-22T08:28:35.094Z,96034.00
2018-09-22T08:31:06.243Z,96022.00
2018-09-22T08:33:37.237Z,96027.00
2018-09-22T08:36:10.430Z,96031.00
2018-09-22T08:38:41.191Z,96037.00
2018-09-22T08:41:12.278Z,96040.00
2018-09-22T08:43:49.824Z,96032.00
2018-09-22T08:46:20.714Z,96027.00
2018-09-22T08:48:51.604Z,96018.00
2018-09-22T08:51:22.580Z,96015.00
2018-09-22T08:53:53.553Z,96019.00
2018-09-22T08:56:24.514Z,96011.00
2018-09-22T08:58:55.387Z,96019.00
2018-09-22T09:01:26.301Z,96013.00
2018-09-22T09:03:57.154Z,96018.00
2018-09-22T09:06:28.106Z,96016.00
2018-09-22T09:08:59.742Z,96017.00
2018-09-22T09:11:30.724Z,96012.00
2018-09-22T09:14:02.040Z,96006.00
2018-09-22T09:16:32.941Z,96002.00
2018-09-22T09:19:03.894Z,96001.00
2018-09-22T09:21:34.805Z,95996.00
2018-09-22T09:24:05.761Z,95989.00
2018-09-22T09:26:36.662Z,95983.00
2018-09-22T09:29:07.576Z,95991.00
2018-09-22T09:31:38.820Z,95989.00
2018-09-22T09:34:09.751Z,95993.00
2018-09-22T09:36:40.637Z,95989.00
2018-09-22T09:39:11.662Z,95987.00
2018-09-22T09:41:42.565Z,95986.00
2018-09-22T09:44:13.502Z,95974.00
2018-09-22T09:46:44.494Z,95967.00
2018-09-22T09:49:15.402Z,95971.00
2018-09-22T09:51:46.653Z,95974.00
2018-09-22T09:54:17.522Z,95972.00
2018-09-22T09:56:48.442Z,95963.00
2018-09-22T09:59:19.402Z,95957.00
2018-09-22T10:01:50.373Z,95957.00
2018-09-22T10:04:21.263Z,95951.00
2018-09-22T10:06:52.431Z,95938.00
2018-09-22T10:09:23.533Z,95937.00
2018-09-22T10:11:54.595Z,95949.00
2018-09-22T10:14:25.384Z,95945.00
2018-09-22T10:16:56.342Z,95947.00
2018-09-22T10:19:27.214Z,95946.00
2018-09-22T10:21:58.106Z,95942.00
2018-09-22T10:24:29.217Z,95935.00
2018-09-22T10:27:00.062Z,95925.00
2018-09-22T10:29:30.923Z,95916.00
2018-09-22T10:32:01.912Z,95918.00
2018-09-22T10:34:32.733Z,95925.00
2018-09-22T10:37:04.014Z,95924.00
2018-09-22T10:39:36.580Z,95927.00
2018-09-22T10:42:07.799Z,95930.00
2018-09-22T10:44:38.860Z,95931.00
2018-09-22T10:47:10.593Z,95927.00
2018-09-22T10:49:43.124Z,95918.00
2018-09-22T10:52:14.255Z,95921.00
2018-09-22T10:54:45.606Z,95915.00
2018-09-22T10:57:16.571Z,95911.00
2018-09-22T10:59:47.454Z,95901.00
2018-09-22T11:02:18.495Z,95901.00
2018-09-22T11:04:49.980Z,95901.00
2018-09-22T11:07:20.899Z,95901.00
2018-09-22T11:09:51.852Z,95896.00
2018-09-22T11:12:22.756Z,95891.00
2018-09-22T11:14:53.740Z,95895.00
2018-09-22T11:17:24.670Z,95887.00
2018-09-22T11:19:55.581Z,95890.00
2018-09-22T11:22:26.781Z,95882.00
2018-09-22T11:24:57.632Z,95889.00
2018-09-22T11:27:28.981Z,95884.00
2018-09-22T11:29:59.934Z,95878.00
2018-09-22T11:32:30.969Z,95872.00
2018-09-22T11:35:01.810Z,95869.00
2018-09-22T11:37:33.729Z,95874.00
2018-09-22T11:40:04.637Z,95865.00
2018-09-22T11:42:35.544Z,95862.00
2018-09-22T11:45:06.637Z,95856.00
2018-09-22T11:47:37.502Z,95853.00
2018-09-22T11:50:08.585Z,95858.00
2018-09-22T11:52:39.693Z,95841.00
2018-09-22T11:55:10.834Z,95836.00
2018-09-22T11:57:41.814Z,95841.00
2018-09-22T12:00:12.832Z,95836.00
2018-09-22T12:02:44.696Z,95833.00
2018-09-22T12:05:15.662Z,95826.00
2018-09-22T12:07:46.576Z,95818.00
2018-09-22T12:10:17.499Z,95814.00
2018-09-22T12:12:48.452Z,95805.00
2018-09-22T12:15:19.393Z,95805.00
2018-09-22T12:17:50.321Z,95808.00
2018-09-22T12:20:21.221Z,95803.00
2018-09-22T12:22:53.124Z,95802.00
2018-09-22T12:25:24.038Z,95802.00
2018-09-22T12:27:55.646Z,95801.00
2018-09-22T12:30:26.938Z,95795.00
2018-09-22T12:33:00.310Z,95799.00
2018-09-22T12:35:31.153Z,95794.00
2018-09-22T12:38:02.062Z,95794.00
2018-09-22T12:40:33.694Z,95796.00
2018-09-22T12:43:04.681Z,95797.00
2018-09-22T12:45:35.549Z,95796.00
2018-09-22T12:48:06.882Z,95785.00
2018-09-22T12:50:37.773Z,95785.00
2018-09-22T12:53:10.802Z,95786.00
2018-09-22T12:55:41.797Z,95787.00
2018-09-22T12:58:12.784Z,95791.00
2018-09-22T13:00:43.743Z,95790.00
2018-09-22T13:03:14.633Z,95787.00
2018-09-22T13:05:45.552Z,95786.00
2018-09-22T13:08:16.816Z,95779.00
2018-09-22T13:10:48.425Z,95772.00
2018-09-22T13:13:19.556Z,95771.00
2018-09-22T13:15:50.385Z,95770.00
2018-09-22T13:18:21.483Z,95767.00
2018-09-22T13:20:52.921Z,95764.00
2018-09-22T13:23:24.216Z,95750.00
2018-09-22T13:25:55.525Z,95747.00
2018-09-22T13:28:26.453Z,95744.00
2018-09-22T13:30:57.293Z,95739.00
2018-09-22T13:33:28.193Z,95739.00
2018-09-22T13:35:59.102Z,95730.00
2018-09-22T13:38:30.065Z,95728.00
2018-09-22T13:41:00.889Z,95730.00
2018-09-22T13:43:31.785Z,95726.00
2018-09-22T13:46:02.740Z,95735.00
2018-09-22T13:48:34.017Z,95734.00
2018-09-22T13:51:05.044Z,95735.00
2018-09-22T13:53:35.882Z,95728.00
2018-09-22T13:56:06.826Z,95732.00
2018-09-22T13:58:37.851Z,95727.00
2018-09-22T14:01:08.869Z,95722.00
2018-09-22T14:03:39.782Z,95718.00
2018-09-22T14:06:10.786Z,95721.00
2018-09-22T14:08:41.815Z,95720.00
2018-09-22T14:11:13.657Z,95722.00
2018-09-22T14:13:44.640Z,95717.00
2018-09-22T14:16:15.662Z,95729.00
2018-09-22T14:18:46.902Z,95715.00
2018-09-22T14:21:18.446Z,95719.00
2018-09-22T14:23:49.349Z,95724.00
2018-09-22T14:26:20.361Z,95725.00
2018-09-22T14:28:52.269Z,95721.00
2018-09-22T14:31:23.494Z,95724.00
2018-09-22T14:33:54.480Z,95724.00
2018-09-22T14:36:25.462Z,95723.00
2018-09-22T14:38:56.397Z,95725.00
2018-09-22T14:41:28.104Z,95721.00
2018-09-22T14:43:59.044Z,95722.00
2018-09-22T14:46:29.974Z,95724.00
2018-09-22T14:49:00.910Z,95727.00
2018-09-22T14:51:32.596Z,95726.00
2018-09-22T14:54:03.678Z,95725.00
2018-09-22T14:56:35.293Z,95725.00
2018-09-22T14:59:06.358Z,95717.00
2018-09-22T15:01:37.348Z,95714.00
2018-09-22T15:04:08.346Z,95710.00
2018-09-22T15:06:39.402Z,95710.00
2018-09-22T15:09:10.325Z,95711.00
2018-09-22T15:11:41.315Z,95717.00
2018-09-22T15:14:12.314Z,95709.00
2018-09-22T15:16:44.002Z,95703.00
2018-09-22T15:19:15.124Z,95694.00
2018-09-22T15:21:46.175Z,95687.00
2018-09-22T15:24:17.066Z,95685.00
2018-09-22T15:26:47.990Z,95685.00
2018-09-22T15:29:19.095Z,95684.00
2018-09-22T15:31:50.042Z,95689.00
2018-09-22T15:34:20.996Z,95688.00
2018-09-22T15:36:51.984Z,95684.00
2018-09-22T15:39:23.870Z,95685.00
2018-09-22T15:41:54.828Z,95682.00
2018-09-22T15:44:26.322Z,95686.00
2018-09-22T15:46:57.613Z,95675.00
2018-09-22T15:49:28.600Z,95680.00
2018-09-22T15:51:59.597Z,95681.00
2018-09-22T15:54:30.490Z,95676.00
2018-09-22T15:57:02.312Z,95677.00
2018-09-22T15:59:33.918Z,95676.00
2018-09-22T16:02:05.237Z,95682.00
2018-09-22T16:04:36.145Z,95681.00
2018-09-22T16:07:07.289Z,95680.00
2018-09-22T16:09:38.230Z,95670.00
2018-09-22T16:12:09.836Z,95676.00
2018-09-22T16:14:41.777Z,95674.00
2018-09-22T16:17:13.410Z,95681.00
2018-09-22T16:19:44.392Z,95672.00
2018-09-22T16:22:15.587Z,95668.00
2018-09-22T16:24:46.485Z,95671.00
2018-09-22T16:27:17.979Z,95677.00
2018-09-22T16:29:48.813Z,95674.00
2018-09-22T16:32:19.825Z,95670.00
2018-09-22T16:34:50.791Z,95675.00
2018-09-22T16:37:21.886Z,95672.00
2018-09-22T16:39:53.599Z,95671.00
2018-09-22T16:42:24.824Z,95669.00
2018-09-22T16:44:55.809Z,95667.00
2018-09-22T16:47:26.912Z,95663.00
2018-09-22T16:49:58.298Z,95660.00
2018-09-22T16:52:29.621Z,95666.00
2018-09-22T16:55:00.596Z,95660.00
2018-09-22T16:57:31.535Z,95661.00
2018-09-22T17:00:02.544Z,95658.00
2018-09-22T17:02:33.796Z,95662.00
2018-09-22T17:05:05.269Z,95663.00
2018-09-22T17:07:36.194Z,95657.00
2018-09-22T17:10:07.257Z,95652.00
2018-09-22T17:12:38.245Z,95648.00
2018-09-22T17:15:09.574Z,95648.00
2018-09-22T17:17:40.550Z,95643.00
2018-09-22T17:20:11.465Z,95647.00
2018-09-22T17:22:42.956Z,95648.00
2018-09-22T17:25:13.860Z,95651.00
2018-09-22T17:27:45.766Z,95658.00
2018-09-22T17:30:18.255Z,95660.00
2018-09-22T17:32:49.232Z,95656.00
2018-09-22T17:35:20.197Z,95660.00
2018-09-22T17:37:51.831Z,95658.00
2018-09-22T17:40:22.771Z,95649.00
2018-09-22T17:42:53.745Z,95651.00
2018-09-22T17:45:24.785Z,95645.00
2018-09-22T17:47:56.097Z,95653.00
2018-09-22T17:50:27.045Z,95655.00
2018-09-22T17:52:57.985Z,95657.00
2018-09-22T17:55:29.131Z,95651.00
2018-09-22T17:58:00.065Z,95653.00
2018-09-22T18:00:31.754Z,95650.00
2018-09-22T18:03:02.823Z,95644.00
2018-09-22T18:05:33.773Z,95645.00
2018-09-22T18:08:04.727Z,95642.00
2018-09-22T18:10:36.522Z,95647.00
2018-09-22T18:13:08.182Z,95653.00
2018-09-22T18:15:39.327Z,95670.00
2018-09-22T18:18:10.310Z,95668.00
2018-09-22T18:20:41.305Z,95672.00
2018-09-22T18:23:12.417Z,95676.00
2018-09-22T18:25:43.445Z,95677.00
2018-09-22T18:28:14.460Z,95679.00
2018-09-22T18:30:45.477Z,95678.00
2018-09-22T18:33:18.004Z,95673.00
2018-09-22T18:35:49.202Z,95676.00
2018-09-22T18:38:21.105Z,95696.00
2018-09-22T18:40:53.532Z,95705.00
2018-09-22T18:43:24.471Z,95715.00
2018-09-22T18:45:57.424Z,95722.00
2018-09-22T18:48:28.376Z,95710.00
2018-09-22T18:50:59.777Z,95721.00
2018-09-22T18:53:32.255Z,95723.00
2018-09-22T18:56:03.278Z,95717.00
2018-09-22T18:58:34.206Z,95722.00
2018-09-22T19:01:06.253Z,95719.00
2018-09-22T19:03:37.278Z,95722.00
2018-09-22T19:06:09.009Z,95725.00
2018-09-22T19:08:39.881Z,95726.00
2018-09-22T19:11:12.402Z,95722.00
2018-09-22T19:13:50.763Z,95724.00
2018-09-22T19:16:28.273Z,95729.00
2018-09-22T19:19:04.676Z,95746.00
2018-09-22T19:22:12.440Z,95747.00
2018-09-22T19:24:46.457Z,95752.00
2018-09-22T19:27:24.597Z,95752.00
2018-09-22T19:31:03.881Z,95756.00
2018-09-22T19:33:37.693Z,95756.00
2018-09-22T19:36:12.936Z,95744.00
2018-09-22T19:38:48.831Z,95737.00
2018-09-22T19:41:25.507Z,95731.00
2018-09-22T19:44:04.597Z,95727.00
2018-09-22T19:46:40.597Z,95737.00
2018-09-22T19:49:52.544Z,95746.00
2018-09-22T19:52:29.394Z,95735.00
2018-09-22T19:55:00.405Z,95723.00
2018-09-22T19:57:32.707Z,95711.00
2018-09-22T20:00:04.830Z,95711.00
2018-09-22T20:02:36.561Z,95707.00
2018-09-22T20:05:08.465Z,95711.00
2018-09-22T20:07:39.965Z,95711.00
2018-09-22T20:10:11.024Z,95714.00
2018-09-22T20:12:42.327Z,95719.00
2018-09-22T20:15:13.279Z,95727.00
2018-09-22T20:17:45.102Z,95725.00
2018-09-22T20:20:16.022Z,95721.00
2018-09-22T20:22:49.980Z,95719.00
2018-09-22T20:25:21.014Z,95722.00
2018-09-22T20:27:52.320Z,95719.00
2018-09-22T20:30:24.369Z,95728.00
2018-09-22T20:32:55.321Z,95735.00
2018-09-22T20:35:26.589Z,95723.00
2018-09-22T20:37:58.400Z,95729.00
2018-09-22T20:40:30.383Z,95719.00
2018-09-22T20:43:01.302Z,95724.00
2018-09-22T20:45:32.689Z,95728.00
2018-09-22T20:48:04.992Z,95735.00
2018-09-22T20:50:36.002Z,95740.00
2018-09-22T20:53:07.057Z,95742.00
2018-09-22T20:55:37.973Z,95759.00
2018-09-22T20:58:09.554Z,95760.00
2018-09-22T21:00:40.542Z,95768.00
2018-09-22T21:03:11.481Z,95772.00
2018-09-22T21:05:42.442Z,95771.00
2018-09-22T21:08:13.388Z,95769.00
2018-09-22T21:10:44.290Z,95768.00
2018-09-22T21:13:15.192Z,95760.00
2018-09-22T21:15:46.225Z,95747.00
2018-09-22T21:18:17.133Z,95754.00
2018-09-22T21:20:48.050Z,95758.00
2018-09-22T21:23:18.942Z,95761.00
2018-09-22T21:25:50.294Z,95760.00
2018-09-22T21:28:21.122Z,95745.00
2018-09-22T21:30:52.044Z,95740.00
2018-09-22T21:33:22.882Z,95731.00
2018-09-22T21:35:53.801Z,95722.00
2018-09-22T21:38:24.782Z,95709.00
2018-09-22T21:40:56.323Z,95711.00
2018-09-22T21:43:27.576Z,95703.00
2018-09-22T21:45:58.562Z,95694.00
2018-09-22T21:48:29.482Z,95698.00
2018-09-22T21:51:00.402Z,95703.00
2018-09-22T21:53:31.364Z,95703.00
2018-09-22T21:56:03.233Z,95696.00
2018-09-22T21:58:34.521Z,95690.00
2018-09-22T22:01:17.134Z,95683.00
2018-09-22T22:03:48.031Z,95686.00
2018-09-22T22:06:19.005Z,95687.00
2018-09-22T22:08:49.833Z,95688.00
2018-09-22T22:11:20.725Z,95699.00
2018-09-22T22:13:51.643Z,95695.00
2018-09-22T22:16:22.605Z,95703.00
2018-09-22T22:18:53.484Z,95707.00
2018-09-22T22:21:24.382Z,95717.00
2018-09-22T22:23:55.200Z,95725.00
2018-09-22T22:26:26.161Z,95737.00
2018-09-22T22:28:57.082Z,95742.00
2018-09-22T22:31:27.993Z,95741.00
2018-09-22T22:33:58.861Z,95735.00
2018-09-22T22:36:29.793Z,95731.00
2018-09-22T22:39:00.764Z,95735.00
2018-09-22T22:41:31.655Z,95744.00
2018-09-22T22:44:02.574Z,95743.00
2018-09-22T22:46:33.602Z,95756.00
2018-09-22T22:49:04.481Z,95770.00
2018-09-22T22:51:35.413Z,95772.00
2018-09-22T22:54:06.282Z,95770.00
2018-09-22T22:56:37.182Z,95762.00
2018-09-22T22:59:08.145Z,95760.00
2018-09-22T23:01:39.057Z,95772.00
2018-09-22T23:04:09.954Z,95766.00
2018-09-22T23:06:40.921Z,95761.00
2018-09-22T23:09:11.813Z,95765.00
2018-09-22T23:11:42.742Z,95769.00
2018-09-22T23:14:13.822Z,95760.00
2018-09-22T23:16:44.766Z,95758.00
2018-09-22T23:19:15.701Z,95756.00
2018-09-22T23:21:46.753Z,95747.00
2018-09-22T23:24:17.601Z,95743.00
2018-09-22T23:26:48.615Z,95745.00
2018-09-22T23:29:20.023Z,95743.00
2018-09-22T23:31:51.169Z,95734.00
2018-09-22T23:34:22.721Z,95723.00
2018-09-22T23:36:53.684Z,95721.00
2018-09-22T23:39:24.539Z,95728.00
2018-09-22T23:41:55.461Z,95727.00
2018-09-22T23:44:26.341Z,95727.00
2018-09-22T23:46:57.312Z,95716.00
2018-09-22T23:49:28.213Z,95722.00
2018-09-22T23:51:59.141Z,95721.00
2018-09-22T23:54:31.683Z,95720.00
2018-09-22T23:57:02.777Z,95723.00
2018-09-22T23:59:33.702Z,95721.00
